Sarona, Wisconsin
Current Conditions -  °F | °C
As of 1:55 AM on Sunday 26 Oct 2014 (Local Time) from KUBE Reporting Station
Clear Clear  
Wind Chill: 29°   Ceiling: Unl
Heat Index: 34°   Visibility: 10mi
Dew Point: 28°   Wind: 6mph
Humidity: 81%   Direction: 260°W
Pressure: 30.01"   Gusts: NA
Location:  45.71°N, 91.81°W
Report Text: KUBE 260655Z AUTO 26005KT 10SM CLR 01/M02 A3001 RMK AO2
Loading
Personal Weather Stations






























Interactive Weather Map
Tropical Storm Tracking
New forecast layout! Learn more

10-Day Weather Forecast

Advertisements
Track Severe Weather on mobile